createdAt,value
2022-08-23T00:01:31.126Z,16.00
2022-08-23T00:04:04.026Z,16.33
2022-08-23T00:06:31.820Z,17.30
2022-08-23T00:08:59.823Z,16.60
2022-08-23T00:11:35.196Z,15.20
2022-08-23T00:14:09.811Z,15.63
2022-08-23T00:16:37.524Z,16.57
2022-08-23T00:19:07.556Z,17.03
2022-08-23T00:21:36.611Z,17.23
2022-08-23T00:24:06.998Z,16.63
2022-08-23T00:26:53.817Z,17.43
2022-08-23T00:29:22.714Z,17.03
2022-08-23T00:31:52.186Z,16.80
2022-08-23T00:34:19.609Z,18.03
2022-08-23T00:36:46.561Z,17.10
2022-08-23T00:39:13.608Z,18.00
2022-08-23T00:41:40.732Z,16.77
2022-08-23T00:44:41.409Z,17.63
2022-08-23T00:47:28.703Z,18.07
2022-08-23T00:50:23.640Z,17.83
2022-08-23T00:53:03.546Z,17.67
2022-08-23T00:55:30.914Z,18.10
2022-08-23T00:57:59.163Z,17.27
2022-08-23T01:00:27.746Z,18.43
2022-08-23T01:02:55.422Z,17.67
2022-08-23T01:05:27.920Z,18.70
2022-08-23T01:07:57.720Z,18.30
2022-08-23T01:10:47.447Z,19.50
2022-08-23T01:13:21.717Z,18.33
2022-08-23T01:15:57.395Z,18.67
2022-08-23T01:18:26.925Z,18.40
2022-08-23T01:20:59.831Z,17.73
2022-08-23T01:23:43.941Z,18.60
2022-08-23T01:26:13.165Z,17.83
2022-08-23T01:28:40.975Z,17.63
2022-08-23T01:31:15.283Z,18.00
2022-08-23T01:33:43.100Z,18.87
2022-08-23T01:36:12.882Z,18.63
2022-08-23T01:38:40.097Z,18.80
2022-08-23T01:41:07.605Z,18.07
2022-08-23T01:43:34.527Z,18.20
2022-08-23T01:46:20.310Z,19.20
2022-08-23T01:48:51.397Z,18.50
2022-08-23T01:51:20.213Z,18.73
2022-08-23T01:53:47.536Z,19.13
2022-08-23T01:56:19.895Z,18.70
2022-08-23T01:58:56.428Z,19.00
2022-08-23T02:01:25.768Z,18.30
2022-08-23T02:04:04.665Z,19.17
2022-08-23T02:06:33.008Z,19.63
2022-08-23T02:09:03.528Z,18.60
2022-08-23T02:11:41.518Z,18.47
2022-08-23T02:14:14.858Z,18.90
2022-08-23T02:17:02.805Z,19.07
2022-08-23T02:19:32.877Z,19.30
2022-08-23T02:22:00.150Z,18.50
2022-08-23T02:24:27.659Z,19.53
2022-08-23T02:26:57.428Z,19.97
2022-08-23T02:29:29.774Z,18.27
2022-08-23T02:31:58.651Z,19.17
2022-08-23T02:34:29.100Z,18.53
2022-08-23T02:36:56.280Z,17.73
2022-08-23T02:39:24.171Z,18.73
2022-08-23T02:41:51.962Z,19.40
2022-08-23T02:44:20.867Z,18.60
2022-08-23T02:46:48.128Z,17.80
2022-08-23T02:49:17.030Z,18.50
2022-08-23T02:51:44.630Z,18.27
2022-08-23T02:54:11.842Z,17.70
2022-08-23T02:56:39.338Z,18.00
2022-08-23T02:59:07.413Z,18.30
2022-08-23T03:01:37.697Z,17.53
2022-08-23T03:04:18.541Z,18.67
2022-08-23T03:06:45.900Z,18.33
2022-08-23T03:09:13.272Z,18.37
2022-08-23T03:11:44.914Z,18.77
2022-08-23T03:14:13.475Z,18.53
2022-08-23T03:16:40.648Z,17.60
2022-08-23T03:19:07.860Z,17.40
2022-08-23T03:21:34.913Z,18.87
2022-08-23T03:24:04.713Z,18.80
2022-08-23T03:26:35.508Z,18.47
2022-08-23T03:29:03.219Z,18.83
2022-08-23T03:31:36.308Z,19.77
2022-08-23T03:34:09.166Z,18.80
2022-08-23T03:36:36.259Z,19.47
2022-08-23T03:39:05.359Z,19.60
2022-08-23T03:41:32.328Z,18.77
2022-08-23T03:43:59.176Z,19.43
2022-08-23T03:46:33.328Z,19.07
2022-08-23T03:49:02.651Z,20.63
2022-08-23T03:51:38.589Z,19.50
2022-08-23T03:54:05.955Z,20.13
2022-08-23T03:56:40.274Z,20.07
2022-08-23T03:59:11.629Z,19.47
2022-08-23T04:01:38.565Z,19.77
2022-08-23T04:04:05.525Z,20.20
2022-08-23T04:06:35.539Z,20.30
2022-08-23T04:09:02.895Z,19.67
2022-08-23T04:11:29.981Z,20.27
2022-08-23T04:14:03.674Z,20.23
2022-08-23T04:16:36.252Z,20.40
2022-08-23T04:19:05.488Z,20.73
2022-08-23T04:21:41.548Z,21.87
2022-08-23T04:24:08.887Z,20.67
2022-08-23T04:26:35.846Z,21.27
2022-08-23T04:29:02.963Z,21.33
2022-08-23T04:31:31.891Z,20.37
2022-08-23T04:34:03.267Z,20.37
2022-08-23T04:36:37.235Z,20.07
2022-08-23T04:39:05.304Z,21.63
2022-08-23T04:41:50.692Z,20.37
2022-08-23T04:44:17.950Z,19.67
2022-08-23T04:46:46.996Z,21.17
2022-08-23T04:49:14.204Z,20.97
2022-08-23T04:51:42.204Z,20.33
2022-08-23T04:54:22.781Z,20.50
2022-08-23T04:57:21.873Z,20.47
2022-08-23T04:59:49.008Z,20.63
2022-08-23T05:02:16.478Z,21.27
2022-08-23T05:04:44.130Z,20.30
2022-08-23T05:07:12.042Z,20.83
2022-08-23T05:09:39.032Z,20.83
2022-08-23T05:12:06.880Z,22.37
2022-08-23T05:14:34.893Z,20.93
2022-08-23T05:17:02.449Z,20.90
2022-08-23T05:19:30.892Z,19.77
2022-08-23T05:21:57.765Z,19.90
2022-08-23T05:24:39.220Z,20.70
2022-08-23T05:27:09.565Z,20.53
2022-08-23T05:29:38.804Z,20.40
2022-08-23T05:32:06.216Z,20.47
2022-08-23T05:34:33.176Z,19.80
2022-08-23T05:37:04.002Z,20.73
2022-08-23T05:39:37.357Z,20.03
2022-08-23T05:42:12.952Z,20.37
2022-08-23T05:44:40.873Z,20.13
2022-08-23T05:47:12.244Z,18.97
2022-08-23T05:50:08.962Z,20.20
2022-08-23T05:52:37.257Z,20.00
2022-08-23T05:55:05.408Z,20.00
2022-08-23T05:57:41.816Z,19.50
2022-08-23T06:00:15.614Z,20.90
2022-08-23T06:02:58.563Z,20.27
2022-08-23T06:05:25.646Z,20.90
2022-08-23T06:07:52.595Z,21.57
2022-08-23T06:10:22.528Z,18.77
2022-08-23T06:13:12.425Z,19.83
2022-08-23T06:15:43.816Z,21.03
2022-08-23T06:18:13.636Z,20.43
2022-08-23T06:20:42.078Z,20.47
2022-08-23T06:23:13.085Z,21.10
2022-08-23T06:25:41.833Z,19.60
2022-08-23T06:28:14.990Z,19.80
2022-08-23T06:30:42.813Z,20.47
2022-08-23T06:33:31.900Z,19.83
2022-08-23T06:36:26.632Z,17.80
2022-08-23T06:39:08.840Z,18.07
2022-08-23T06:42:02.108Z,21.63
2022-08-23T06:44:31.936Z,20.57
2022-08-23T06:47:08.859Z,19.97
2022-08-23T06:49:36.212Z,19.23
2022-08-23T06:52:06.233Z,18.33
2022-08-23T06:54:58.312Z,17.40
2022-08-23T06:57:42.427Z,18.23
2022-08-23T07:00:29.619Z,17.10
2022-08-23T07:03:06.078Z,17.27
2022-08-23T07:05:51.442Z,17.37
2022-08-23T07:08:21.184Z,16.60
2022-08-23T07:10:48.101Z,17.47
2022-08-23T07:13:18.497Z,17.77
2022-08-23T07:15:45.912Z,18.47
2022-08-23T07:18:18.647Z,16.87
2022-08-23T07:20:45.445Z,17.43
2022-08-23T07:23:12.467Z,17.00
2022-08-23T07:25:42.423Z,17.60
2022-08-23T07:28:14.104Z,16.70
2022-08-23T07:30:45.328Z,16.73
2022-08-23T07:33:14.053Z,15.60
2022-08-23T07:36:05.315Z,15.60
2022-08-23T07:38:32.639Z,15.67
2022-08-23T07:40:59.764Z,15.93
2022-08-23T07:43:26.886Z,16.30
2022-08-23T07:45:54.821Z,15.87
2022-08-23T07:48:37.315Z,15.37
2022-08-23T07:51:20.778Z,15.17
2022-08-23T07:53:48.061Z,14.93
2022-08-23T07:56:19.664Z,14.70
2022-08-23T07:59:06.764Z,14.97
2022-08-23T08:01:54.082Z,15.43
2022-08-23T08:04:23.084Z,15.37
2022-08-23T08:07:10.493Z,14.83
2022-08-23T08:09:41.046Z,15.00
2022-08-23T08:12:08.972Z,14.50
2022-08-23T08:14:39.998Z,14.07
2022-08-23T08:17:08.547Z,14.20
2022-08-23T08:19:53.655Z,14.40
2022-08-23T08:22:49.938Z,13.63
2022-08-23T08:25:35.395Z,14.13
2022-08-23T08:28:05.608Z,13.57
2022-08-23T08:30:32.909Z,13.30
2022-08-23T08:33:01.915Z,13.50
2022-08-23T08:35:30.761Z,13.70
2022-08-23T08:37:58.147Z,13.50
2022-08-23T08:40:34.492Z,13.10
2022-08-23T08:43:27.657Z,13.53
2022-08-23T08:46:21.343Z,12.90
2022-08-23T08:48:53.792Z,12.77
2022-08-23T08:51:45.441Z,12.40
2022-08-23T08:54:17.431Z,13.00
2022-08-23T08:56:52.222Z,12.63
2022-08-23T08:59:46.233Z,13.60
2022-08-23T09:02:32.492Z,13.13
2022-08-23T09:05:11.590Z,13.20
2022-08-23T09:07:58.268Z,13.47
2022-08-23T09:10:44.417Z,13.10
2022-08-23T09:13:32.993Z,12.73
2022-08-23T09:16:41.182Z,13.27
2022-08-23T09:19:09.051Z,13.60
2022-08-23T09:21:50.768Z,12.83
2022-08-23T09:24:17.969Z,12.93
2022-08-23T09:27:11.584Z,12.67
2022-08-23T09:29:51.041Z,13.10
2022-08-23T09:32:35.802Z,12.87
2022-08-23T09:35:19.349Z,12.53
2022-08-23T09:38:04.373Z,14.00
2022-08-23T09:40:38.887Z,13.87
2022-08-23T09:43:23.675Z,13.97
2022-08-23T09:45:50.808Z,14.47
2022-08-23T09:48:33.149Z,14.30
2022-08-23T09:51:42.938Z,14.57
2022-08-23T09:54:23.049Z,14.60
2022-08-23T09:57:03.195Z,14.57
2022-08-23T09:59:44.760Z,14.63
2022-08-23T10:02:23.988Z,14.63
2022-08-23T10:04:54.239Z,14.80
2022-08-23T10:07:27.214Z,14.73
2022-08-23T10:10:15.772Z,14.80
2022-08-23T10:12:43.486Z,15.73
2022-08-23T10:15:10.687Z,14.37
2022-08-23T10:17:45.234Z,15.37
2022-08-23T10:21:09.605Z,14.50
2022-08-23T10:23:42.421Z,14.80
2022-08-23T10:26:33.133Z,14.30
2022-08-23T10:29:38.250Z,14.47
2022-08-23T10:32:24.147Z,15.30
2022-08-23T10:35:19.269Z,14.20
2022-08-23T10:38:12.936Z,14.80
2022-08-23T10:40:53.093Z,15.07
2022-08-23T10:43:34.618Z,14.43
2022-08-23T10:46:02.871Z,14.03
2022-08-23T10:48:41.365Z,14.60
2022-08-23T10:51:17.882Z,13.80
2022-08-23T10:54:09.980Z,13.73
2022-08-23T10:56:42.920Z,13.70
2022-08-23T10:59:24.254Z,13.27
2022-08-23T11:02:06.087Z,14.37
2022-08-23T11:04:41.233Z,14.20
2022-08-23T11:07:25.997Z,14.17
2022-08-23T11:10:07.110Z,13.83
2022-08-23T11:13:06.428Z,13.63
2022-08-23T11:16:01.383Z,14.20
2022-08-23T11:18:49.547Z,14.10
2022-08-23T11:21:24.967Z,13.33
2022-08-23T11:23:58.641Z,14.40
2022-08-23T11:26:27.525Z,13.90
2022-08-23T11:29:17.389Z,13.97
2022-08-23T11:32:17.246Z,13.47
2022-08-23T11:35:04.092Z,13.67
2022-08-23T11:37:50.624Z,13.77
2022-08-23T11:40:44.609Z,13.37
2022-08-23T11:43:26.588Z,14.20
2022-08-23T11:45:54.478Z,13.60
2022-08-23T11:48:27.467Z,13.97
2022-08-23T11:51:35.652Z,14.20
2022-08-23T11:54:33.419Z,13.63
2022-08-23T11:57:00.533Z,14.97
2022-08-23T11:59:58.210Z,13.50
2022-08-23T12:02:34.222Z,14.27
2022-08-23T12:05:22.848Z,14.37
2022-08-23T12:08:01.196Z,14.90
2022-08-23T12:10:43.387Z,14.50
2022-08-23T12:13:19.786Z,14.93
2022-08-23T12:16:05.750Z,15.20
2022-08-23T12:18:57.761Z,14.80
2022-08-23T12:21:29.912Z,14.00
2022-08-23T12:24:01.601Z,14.07
2022-08-23T12:26:44.836Z,13.87
2022-08-23T12:29:44.140Z,13.90
2022-08-23T12:32:20.300Z,14.13
2022-08-23T12:35:19.337Z,13.83
2022-08-23T12:38:06.336Z,13.70
2022-08-23T12:40:42.102Z,13.87
2022-08-23T12:43:26.157Z,14.07
2022-08-23T12:45:56.654Z,13.47
2022-08-23T12:48:27.985Z,14.23
2022-08-23T12:50:59.448Z,13.90
2022-08-23T12:53:44.073Z,14.40
2022-08-23T12:56:20.907Z,14.13
2022-08-23T12:58:53.057Z,14.40
2022-08-23T13:01:29.867Z,14.10
2022-08-23T13:04:06.327Z,14.50
2022-08-23T13:06:45.473Z,14.30
2022-08-23T13:09:24.913Z,13.70
2022-08-23T13:11:52.621Z,13.60
2022-08-23T13:14:31.066Z,13.63
2022-08-23T13:17:14.112Z,13.77
2022-08-23T13:19:41.327Z,14.23
2022-08-23T13:22:19.530Z,13.43
2022-08-23T13:25:24.506Z,13.53
2022-08-23T13:27:47.024Z,14.27
2022-08-23T13:30:14.087Z,14.30
2022-08-23T13:32:46.869Z,14.00
2022-08-23T13:35:34.254Z,15.17
2022-08-23T13:38:13.176Z,14.67
2022-08-23T13:41:07.727Z,14.77
2022-08-23T13:43:43.760Z,13.87
2022-08-23T13:46:28.627Z,14.30
2022-08-23T13:49:16.527Z,14.07
2022-08-23T13:52:37.601Z,14.20
2022-08-23T13:54:51.354Z,14.40
2022-08-23T13:57:21.894Z,14.03
2022-08-23T13:59:55.190Z,13.60
2022-08-23T14:02:24.073Z,14.03
2022-08-23T14:04:51.084Z,13.93
2022-08-23T14:07:18.479Z,14.40
2022-08-23T14:09:45.803Z,14.37
2022-08-23T14:12:24.353Z,14.37
2022-08-23T14:14:56.235Z,14.30
2022-08-23T14:17:23.213Z,14.37
2022-08-23T14:22:37.151Z,14.10
2022-08-23T14:25:05.104Z,14.73
2022-08-23T14:27:32.946Z,14.90
2022-08-23T14:30:00.075Z,14.47
2022-08-23T14:32:27.450Z,14.40
2022-08-23T14:34:54.313Z,14.47
2022-08-23T14:38:02.084Z,14.67
2022-08-23T14:40:09.481Z,14.70
2022-08-23T14:42:36.431Z,14.43
2022-08-23T14:45:04.923Z,14.50
2022-08-23T14:47:31.894Z,14.27
2022-08-23T14:49:58.752Z,14.57
2022-08-23T14:52:25.690Z,14.53
2022-08-23T14:54:52.785Z,13.97
2022-08-23T14:57:19.768Z,14.43
2022-08-23T14:59:46.712Z,14.03
2022-08-23T15:02:19.236Z,14.77
2022-08-23T15:04:46.220Z,14.10
2022-08-23T15:07:20.159Z,14.23
2022-08-23T15:09:49.603Z,14.03
2022-08-23T15:15:09.099Z,14.27
2022-08-23T15:17:45.370Z,13.73
2022-08-23T15:20:12.382Z,13.80
2022-08-23T15:22:44.307Z,13.90
2022-08-23T15:25:13.872Z,14.03
2022-08-23T15:27:42.344Z,13.90
2022-08-23T15:30:10.536Z,13.67
2022-08-23T15:32:37.563Z,14.33
2022-08-23T15:35:05.684Z,13.47
2022-08-23T15:37:34.400Z,13.97
2022-08-23T15:40:02.152Z,13.60
2022-08-23T15:42:29.077Z,13.57
2022-08-23T15:44:56.024Z,13.63
2022-08-23T15:47:33.428Z,13.57
2022-08-23T15:50:01.085Z,13.20
2022-08-23T15:52:28.188Z,13.50
2022-08-23T15:54:55.136Z,14.13
2022-08-23T15:57:25.008Z,13.63
2022-08-23T15:59:57.127Z,14.00
2022-08-23T16:02:24.137Z,13.30
2022-08-23T16:04:51.031Z,13.77
2022-08-23T16:07:18.396Z,13.60
2022-08-23T16:09:45.437Z,13.93
2022-08-23T16:12:12.269Z,13.27
2022-08-23T16:14:39.237Z,13.37
2022-08-23T16:17:07.317Z,13.13
2022-08-23T16:19:34.592Z,14.37
2022-08-23T16:22:01.901Z,13.83
2022-08-23T16:24:29.469Z,13.73
2022-08-23T16:26:56.412Z,14.47
2022-08-23T16:29:23.450Z,13.20
2022-08-23T16:31:50.581Z,14.07
2022-08-23T16:34:19.600Z,14.10
2022-08-23T16:36:50.332Z,14.17
2022-08-23T16:39:17.889Z,14.77
2022-08-23T16:41:44.938Z,13.10
2022-08-23T16:44:11.862Z,13.37
2022-08-23T16:46:42.642Z,13.63
2022-08-23T16:49:11.198Z,13.90
2022-08-23T16:51:38.155Z,14.30
2022-08-23T16:54:05.827Z,13.70
2022-08-23T16:56:33.478Z,14.23
2022-08-23T16:59:01.627Z,13.80
2022-08-23T17:01:29.488Z,13.43
2022-08-23T17:03:56.691Z,14.00
2022-08-23T17:06:23.732Z,13.17
2022-08-23T17:08:50.677Z,13.37
2022-08-23T17:11:19.377Z,13.10
2022-08-23T17:13:46.688Z,12.97
2022-08-23T17:16:13.829Z,13.20
2022-08-23T17:18:40.868Z,13.40
2022-08-23T17:21:09.282Z,13.33
2022-08-23T17:23:39.240Z,12.90
2022-08-23T17:26:08.775Z,12.10
2022-08-23T17:28:35.862Z,12.67
2022-08-23T17:31:03.941Z,12.77
2022-08-23T17:33:30.802Z,13.00
2022-08-23T17:35:57.720Z,13.40
2022-08-23T17:38:24.626Z,12.07
2022-08-23T17:40:51.939Z,13.47
2022-08-23T17:43:19.200Z,13.60
2022-08-23T17:45:48.812Z,12.70
2022-08-23T17:48:18.176Z,12.83
2022-08-23T17:50:46.208Z,13.20
2022-08-23T17:53:15.188Z,13.00
2022-08-23T17:55:42.259Z,12.93
2022-08-23T17:58:10.525Z,12.30
2022-08-23T18:00:39.435Z,12.80
2022-08-23T18:03:07.148Z,12.57
2022-08-23T18:05:37.121Z,12.37
2022-08-23T18:08:04.385Z,13.27
2022-08-23T18:10:31.252Z,12.70
2022-08-23T18:12:58.734Z,12.57
2022-08-23T18:15:30.181Z,12.33
2022-08-23T18:17:59.718Z,12.33
2022-08-23T18:20:28.157Z,12.30
2022-08-23T18:22:56.622Z,12.83
2022-08-23T18:25:23.617Z,12.43
2022-08-23T18:28:09.353Z,12.10
2022-08-23T18:30:47.359Z,12.83
2022-08-23T18:33:15.709Z,12.73
2022-08-23T18:35:43.558Z,12.97
2022-08-23T18:38:14.739Z,13.37
2022-08-23T18:40:46.342Z,13.10
2022-08-23T18:43:20.645Z,13.00
2022-08-23T18:45:50.114Z,12.60
2022-08-23T18:48:18.235Z,12.73
2022-08-23T18:50:45.925Z,13.10
2022-08-23T18:53:13.680Z,12.47
2022-08-23T18:55:41.792Z,12.87
2022-08-23T18:58:09.013Z,12.40
2022-08-23T19:00:37.487Z,12.70
2022-08-23T19:03:06.816Z,12.33
2022-08-23T19:05:41.485Z,12.53
2022-08-23T19:08:11.579Z,12.57
2022-08-23T19:10:39.956Z,11.90
2022-08-23T19:13:08.907Z,12.47
2022-08-23T19:15:37.002Z,12.50
2022-08-23T19:18:04.352Z,13.43
2022-08-23T19:20:32.586Z,13.70
2022-08-23T19:22:59.684Z,13.73
2022-08-23T19:25:27.268Z,13.40
2022-08-23T19:27:56.736Z,14.00
2022-08-23T19:30:23.635Z,14.10
2022-08-23T19:32:56.686Z,14.20
2022-08-23T19:35:23.678Z,14.00
2022-08-23T19:37:50.671Z,14.40
2022-08-23T19:40:18.009Z,14.43
2022-08-23T19:42:44.981Z,14.00
2022-08-23T19:45:12.541Z,14.77
2022-08-23T19:47:40.350Z,15.27
2022-08-23T19:50:09.718Z,14.57
2022-08-23T19:52:37.397Z,14.70
2022-08-23T19:55:07.422Z,15.53
2022-08-23T19:57:36.959Z,15.47
2022-08-23T20:00:13.537Z,15.53
2022-08-23T20:02:42.947Z,14.97
2022-08-23T20:05:10.069Z,15.07
2022-08-23T20:07:37.958Z,14.43
2022-08-23T20:10:07.122Z,15.23
2022-08-23T20:12:34.841Z,14.47
2022-08-23T20:15:02.454Z,15.17
2022-08-23T20:17:29.333Z,15.00
2022-08-23T20:19:56.313Z,14.80
2022-08-23T20:22:42.166Z,14.63
2022-08-23T20:25:10.281Z,14.67
2022-08-23T20:27:37.596Z,14.80
2022-08-23T20:30:07.296Z,15.27
2022-08-23T20:32:34.492Z,14.87
2022-08-23T20:35:03.171Z,15.20
2022-08-23T20:37:30.192Z,14.63
2022-08-23T20:39:57.629Z,14.77
2022-08-23T20:42:24.820Z,15.17
2022-08-23T20:44:51.985Z,15.00
2022-08-23T20:47:19.129Z,14.83
2022-08-23T20:49:46.386Z,14.33
2022-08-23T20:52:13.373Z,14.33
2022-08-23T20:54:40.315Z,14.30
2022-08-23T20:57:07.198Z,15.00
2022-08-23T20:59:34.123Z,14.33
2022-08-23T21:02:01.073Z,14.67
2022-08-23T21:04:30.187Z,14.60
2022-08-23T21:06:58.008Z,14.70
2022-08-23T21:09:29.436Z,15.13
2022-08-23T21:11:57.035Z,12.90
2022-08-23T21:14:24.274Z,12.73
2022-08-23T21:16:51.297Z,13.60
2022-08-23T21:19:19.151Z,13.80
2022-08-23T21:21:46.122Z,13.17
2022-08-23T21:24:13.205Z,14.10
2022-08-23T21:26:41.292Z,13.83
2022-08-23T21:29:08.504Z,13.80
2022-08-23T21:31:36.338Z,12.87
2022-08-23T21:34:03.453Z,13.87
2022-08-23T21:36:30.598Z,14.03
2022-08-23T21:38:57.520Z,13.73
2022-08-23T21:41:33.663Z,14.33
2022-08-23T21:44:01.209Z,14.23
2022-08-23T21:46:28.260Z,14.93
2022-08-23T21:48:56.088Z,14.77
2022-08-23T21:51:23.082Z,14.40
2022-08-23T21:53:50.742Z,14.20
2022-08-23T21:56:17.821Z,14.23
2022-08-23T21:58:45.347Z,14.07
2022-08-23T22:01:12.826Z,13.43
2022-08-23T22:03:40.222Z,14.23
2022-08-23T22:06:13.196Z,13.90
2022-08-23T22:08:41.944Z,14.80
2022-08-23T22:11:08.899Z,14.63
2022-08-23T22:13:36.229Z,14.27
2022-08-23T22:16:03.874Z,14.57
2022-08-23T22:18:31.388Z,14.33
2022-08-23T22:20:58.561Z,13.97
2022-08-23T22:23:27.677Z,14.73
2022-08-23T22:26:02.375Z,14.67
2022-08-23T22:28:32.411Z,15.20
2022-08-23T22:31:01.182Z,14.93
2022-08-23T22:33:28.101Z,14.10
2022-08-23T22:35:55.119Z,14.93
2022-08-23T22:38:21.972Z,15.30
2022-08-23T22:40:52.579Z,15.30
2022-08-23T22:43:20.681Z,14.60
2022-08-23T22:45:52.377Z,14.40
2022-08-23T22:48:19.542Z,14.33
2022-08-23T22:50:46.648Z,14.30
2022-08-23T22:53:14.332Z,14.60
2022-08-23T22:55:42.036Z,15.17
2022-08-23T22:58:09.244Z,15.60
2022-08-23T23:00:42.816Z,14.73
2022-08-23T23:03:10.577Z,15.17
2022-08-23T23:05:38.043Z,14.87
2022-08-23T23:08:23.376Z,15.27
2022-08-23T23:10:50.369Z,15.03
2022-08-23T23:13:17.431Z,16.57
2022-08-23T23:15:44.398Z,16.60
2022-08-23T23:18:11.234Z,16.10
2022-08-23T23:20:39.363Z,16.57
2022-08-23T23:23:12.865Z,16.70
2022-08-23T23:25:40.877Z,16.47
2022-08-23T23:28:07.782Z,16.90
2022-08-23T23:30:36.035Z,16.77
2022-08-23T23:33:03.552Z,16.30
2022-08-23T23:35:30.963Z,15.97
2022-08-23T23:37:58.652Z,17.27
2022-08-23T23:40:26.408Z,17.23
2022-08-23T23:42:54.282Z,16.07
2022-08-23T23:45:21.634Z,16.33
2022-08-23T23:47:48.520Z,16.70
2022-08-23T23:50:16.048Z,17.57
2022-08-23T23:52:43.027Z,17.50
2022-08-23T23:55:12.635Z,18.03
2022-08-23T23:57:39.631Z,18.10
